Celeste, TX

2:54 AM CDT on April 18, 2015 (GMT -0500)
Farmers Electric Coop | | Change Station
CLOSE
Current Station
Personal Weather Station
Location: Greenville, TX
Elevation: 535 ft
Nearby Weather Stations

Elev 535 ft 33.14 °N, 96.06 °W | Updated 14 minutes ago

Rain
Rain
63.5 °F
Feels Like 63.5 °F
N
0.7
Wind Variable Wind from West
Gusts 2.2 mph

Today
High -- | Low -- °F
--% Chance of Precip.
Yesterday
High -- | Low -- °F
Precip. -- in
6:51 AM 7:57 PM
Waning Crescent, 0% visible
Pressure 29.92 in
Visibility 10.0 miles
Clouds Mostly Cloudy 4700 ft
Mostly Cloudy 5000 ft
Overcast 9500 ft
Dew Point 44 °F
Humidity 50%
Rainfall 0.39 in
Snow Depth Not available.
UV 0 out of 12
Pollen 8.20 out of 12
Air Quality Not available.
Flu Activity Local Activity
METAR KGVT 180735Z AUTO 06003KT 10SM -RA BKN047 BKN050 OVC095 17/16 A2992 RMK AO2 P0004

More Conditions Fewer Conditions

Pressure 29.92 in
Visibility 10.0 miles
Clouds Mostly Cloudy 4700 ft
Mostly Cloudy 5000 ft
Overcast 9500 ft
Dew Point 44 °F
Humidity 50%
Rainfall 0.39 in
Snow Depth Not available.
UV 0 out of 12
Pollen 8.20 out of 12
Air Quality Not available.
Flu Activity Local Activity
METAR KGVT 180735Z AUTO 06003KT 10SM -RA BKN047 BKN050 OVC095 17/16 A2992 RMK AO2 P0004

More Conditions Fewer Conditions

Nowcast | as of 2:47 am CDT on April 18, 2015

Scattered showers and isolated thunderstorms will affect areas mainly north and east of a line from Bowie...to lake ray Roberts...to Greenville...to Palestine. Isolated showers may pop up from time to time elsewhere through daybreak this morning. Cloud to ground lightning will be a hazard with rainfall amounts generally averaging between 1/10 and 1/4 of an inch with any thunderstorms...with lesser amounts with ligher shower activity. Otherwise...mostly cloudy skies will continue with variable winds around 5 mph and temperatures remaining steady between 55 and 65 degrees.

×

10-Day Weather Forecast

Almanac

Astronomy

Apr. 18, 2015 Rise Set
Actual Time
Civil Twilight
Nautical Twilight
Astronomical Twilight
Moon
Length of Visible Light
Length of Day
Tomorrow will be .
, % of the Moon is Illuminated

Today's Extremes

State Highs State Lows

Community

WunderPhotos

Upload Photos

1,814,345 photos uploaded!

WunderBlogs® & News

Nearby

Air Quality

  Air Quality AQ Index Pollutant
Not available.

Snow Depth

Station Depth Elevation

Earthquake Activity

City Distance Mag. Time & Date
Minimum magnitude displayed is 2.5.

Coastal Water Temperatures

Place Temperature

Stations

Nearby Weather Stations

Station Location Temp. Windchill Dew Point Humidity Wind Precip. Elev Updated Type